sensor_id;sensor_type;location;lat;lon;timestamp;pressure;altitude;pressure_sealevel;temperature;humidity
23899;BME280;20544;50.018;20.010;2023-02-28T00:02:32;100010.87;;;-0.01;100.00
23899;BME280;20544;50.018;20.010;2023-02-28T00:08:52;100016.33;;;-0.05;100.00
23899;BME280;20544;50.018;20.010;2023-02-28T00:12:09;100021.39;;;-0.02;100.00
23899;BME280;20544;50.018;20.010;2023-02-28T00:15:26;100020.38;;;0.01;100.00
23899;BME280;20544;50.018;20.010;2023-02-28T00:18:43;100023.91;;;-0.01;100.00
23899;BME280;20544;50.018;20.010;2023-02-28T00:22:01;100021.48;;;-0.04;100.00
23899;BME280;20544;50.018;20.010;2023-02-28T00:25:20;100027.53;;;-0.03;100.00
23899;BME280;20544;50.018;20.010;2023-02-28T00:28:37;100025.75;;;-0.03;100.00
23899;BME280;20544;50.018;20.010;2023-02-28T00:31:54;100027.44;;;-0.02;100.00
23899;BME280;20544;50.018;20.010;2023-02-28T00:35:12;100028.30;;;-0.01;100.00
23899;BME280;20544;50.018;20.010;2023-02-28T00:38:30;100032.60;;;0.00;100.00
23899;BME280;20544;50.018;20.010;2023-02-28T00:41:47;100027.44;;;-0.02;100.00
23899;BME280;20544;50.018;20.010;2023-02-28T00:45:06;100016.42;;;-0.07;100.00
23899;BME280;20544;50.018;20.010;2023-02-28T00:48:22;100018.18;;;-0.23;100.00
23899;BME280;20544;50.018;20.010;2023-02-28T00:51:39;100023.63;;;-0.28;100.00
23899;BME280;20544;50.018;20.010;2023-02-28T00:54:55;100020.94;;;-0.26;100.00
23899;BME280;20544;50.018;20.010;2023-02-28T00:58:13;100011.37;;;-0.26;100.00
23899;BME280;20544;50.018;20.010;2023-02-28T01:01:29;100017.00;;;-0.34;100.00
23899;BME280;20544;50.018;20.010;2023-02-28T01:04:47;100019.52;;;-0.32;100.00
23899;BME280;20544;50.018;20.010;2023-02-28T01:08:06;100015.04;;;-0.30;100.00
23899;BME280;20544;50.018;20.010;2023-02-28T01:11:23;100023.48;;;-0.25;100.00
23899;BME280;20544;50.018;20.010;2023-02-28T01:14:41;100021.03;;;-0.28;100.00
23899;BME280;20544;50.018;20.010;2023-02-28T01:18:00;100014.67;;;-0.56;100.00
23899;BME280;20544;50.018;20.010;2023-02-28T01:21:19;100020.44;;;-0.67;100.00
23899;BME280;20544;50.018;20.010;2023-02-28T01:24:34;100017.47;;;-0.76;100.00
23899;BME280;20544;50.018;20.010;2023-02-28T01:27:53;100011.94;;;-0.70;100.00
23899;BME280;20544;50.018;20.010;2023-02-28T01:31:11;100019.84;;;-0.72;100.00
23899;BME280;20544;50.018;20.010;2023-02-28T01:34:29;100023.05;;;-0.67;100.00
23899;BME280;20544;50.018;20.010;2023-02-28T01:37:46;100019.12;;;-0.58;100.00
23899;BME280;20544;50.018;20.010;2023-02-28T01:41:04;100016.10;;;-0.50;100.00
23899;BME280;20544;50.018;20.010;2023-02-28T01:48:11;100011.66;;;-0.48;100.00
23899;BME280;20544;50.018;20.010;2023-02-28T01:54:33;100011.57;;;-0.46;100.00
23899;BME280;20544;50.018;20.010;2023-02-28T01:57:53;100015.78;;;-0.44;100.00
23899;BME280;20544;50.018;20.010;2023-02-28T02:01:12;100007.90;;;-0.42;100.00
23899;BME280;20544;50.018;20.010;2023-02-28T02:04:34;100013.35;;;-0.47;100.00
23899;BME280;20544;50.018;20.010;2023-02-28T02:10:58;100004.16;;;-0.54;100.00
23899;BME280;20544;50.018;20.010;2023-02-28T02:14:20;100005.94;;;-0.55;100.00
23899;BME280;20544;50.018;20.010;2023-02-28T02:17:49;100005.40;;;-0.61;100.00
23899;BME280;20544;50.018;20.010;2023-02-28T02:21:20;100007.17;;;-0.62;100.00
23899;BME280;20544;50.018;20.010;2023-02-28T02:25:00;100005.48;;;-0.63;100.00
23899;BME280;20544;50.018;20.010;2023-02-28T02:42:47;99997.16;;;-0.70;100.00
23899;BME280;20544;50.018;20.010;2023-02-28T02:46:09;99992.00;;;-0.71;100.00
23899;BME280;20544;50.018;20.010;2023-02-28T02:49:31;99986.20;;;-0.76;100.00
23899;BME280;20544;50.018;20.010;2023-02-28T02:55:53;99985.51;;;-0.80;100.00
23899;BME280;20544;50.018;20.010;2023-02-28T02:59:13;99984.59;;;-0.79;100.00
23899;BME280;20544;50.018;20.010;2023-02-28T03:02:35;99982.91;;;-0.80;100.00
23899;BME280;20544;50.018;20.010;2023-02-28T03:05:54;99978.55;;;-0.79;100.00
23899;BME280;20544;50.018;20.010;2023-02-28T03:09:09;99984.22;;;-0.89;100.00
23899;BME280;20544;50.018;20.010;2023-02-28T03:12:31;99981.88;;;-0.93;100.00
23899;BME280;20544;50.018;20.010;2023-02-28T03:15:58;99986.31;;;-0.95;100.00
23899;BME280;20544;50.018;20.010;2023-02-28T03:19:41;99984.11;;;-1.03;100.00
23899;BME280;20544;50.018;20.010;2023-02-28T03:23:13;99994.89;;;-1.11;100.00
23899;BME280;20544;50.018;20.010;2023-02-28T03:26:31;100006.30;;;-1.14;100.00
23899;BME280;20544;50.018;20.010;2023-02-28T03:29:53;100005.95;;;-1.23;100.00
23899;BME280;20544;50.018;20.010;2023-02-28T03:33:16;100002.34;;;-1.21;100.00
23899;BME280;20544;50.018;20.010;2023-02-28T03:36:37;100008.30;;;-1.19;100.00
23899;BME280;20544;50.018;20.010;2023-02-28T03:40:02;100005.00;;;-1.22;100.00
23899;BME280;20544;50.018;20.010;2023-02-28T03:43:24;100009.47;;;-1.24;100.00
23899;BME280;20544;50.018;20.010;2023-02-28T03:46:46;100005.95;;;-1.23;100.00
23899;BME280;20544;50.018;20.010;2023-02-28T03:50:08;100019.80;;;-1.23;100.00
23899;BME280;20544;50.018;20.010;2023-02-28T03:53:30;100014.06;;;-1.29;100.00
23899;BME280;20544;50.018;20.010;2023-02-28T03:56:53;100018.08;;;-1.59;100.00
23899;BME280;20544;50.018;20.010;2023-02-28T04:00:16;100019.69;;;-1.56;100.00
23899;BME280;20544;50.018;20.010;2023-02-28T04:03:36;100017.45;;;-1.64;100.00
23899;BME280;20544;50.018;20.010;2023-02-28T04:07:00;100020.77;;;-1.80;100.00
23899;BME280;20544;50.018;20.010;2023-02-28T04:10:18;100019.86;;;-1.79;100.00
23899;BME280;20544;50.018;20.010;2023-02-28T04:13:35;100030.92;;;-1.92;100.00
23899;BME280;20544;50.018;20.010;2023-02-28T04:16:54;100028.24;;;-1.91;100.00
23899;BME280;20544;50.018;20.010;2023-02-28T04:20:12;100026.42;;;-1.89;100.00
23899;BME280;20544;50.018;20.010;2023-02-28T04:23:29;100027.54;;;-1.75;100.00
23899;BME280;20544;50.018;20.010;2023-02-28T04:26:49;100020.64;;;-1.76;100.00
23899;BME280;20544;50.018;20.010;2023-02-28T04:30:09;100034.22;;;-1.89;100.00
23899;BME280;20544;50.018;20.010;2023-02-28T04:33:28;100037.89;;;-1.93;100.00
23899;BME280;20544;50.018;20.010;2023-02-28T04:36:47;100034.80;;;-2.01;100.00
23899;BME280;20544;50.018;20.010;2023-02-28T04:40:10;100029.52;;;-2.00;100.00
23899;BME280;20544;50.018;20.010;2023-02-28T04:43:31;100040.42;;;-1.91;100.00
23899;BME280;20544;50.018;20.010;2023-02-28T04:46:49;100037.39;;;-2.01;100.00
23899;BME280;20544;50.018;20.010;2023-02-28T04:50:07;100041.27;;;-2.10;100.00
23899;BME280;20544;50.018;20.010;2023-02-28T04:53:26;100032.05;;;-2.17;100.00
23899;BME280;20544;50.018;20.010;2023-02-28T04:56:43;100039.92;;;-2.19;100.00
23899;BME280;20544;50.018;20.010;2023-02-28T05:00:00;100039.02;;;-2.18;100.00
23899;BME280;20544;50.018;20.010;2023-02-28T05:03:22;100043.03;;;-2.10;100.00
23899;BME280;20544;50.018;20.010;2023-02-28T05:06:39;100044.77;;;-2.11;100.00
23899;BME280;20544;50.018;20.010;2023-02-28T05:09:59;100046.89;;;-2.19;100.00
23899;BME280;20544;50.018;20.010;2023-02-28T05:13:18;100043.16;;;-2.14;100.00
23899;BME280;20544;50.018;20.010;2023-02-28T05:16:35;100046.66;;;-2.15;100.00
23899;BME280;20544;50.018;20.010;2023-02-28T05:19:52;100049.56;;;-2.02;100.00
23899;BME280;20544;50.018;20.010;2023-02-28T05:23:13;100046.69;;;-1.96;100.00
23899;BME280;20544;50.018;20.010;2023-02-28T05:26:34;100052.28;;;-1.86;100.00
23899;BME280;20544;50.018;20.010;2023-02-28T05:29:50;100054.67;;;-1.81;100.00
23899;BME280;20544;50.018;20.010;2023-02-28T05:33:09;100066.48;;;-1.74;100.00
23899;BME280;20544;50.018;20.010;2023-02-28T05:36:27;100063.10;;;-1.76;100.00
23899;BME280;20544;50.018;20.010;2023-02-28T05:39:44;100071.83;;;-1.96;100.00
23899;BME280;20544;50.018;20.010;2023-02-28T05:43:01;100075.06;;;-2.10;100.00
23899;BME280;20544;50.018;20.010;2023-02-28T05:46:18;100083.76;;;-2.30;100.00
23899;BME280;20544;50.018;20.010;2023-02-28T05:49:37;100086.36;;;-2.30;100.00
23899;BME280;20544;50.018;20.010;2023-02-28T05:52:56;100080.97;;;-2.25;100.00
23899;BME280;20544;50.018;20.010;2023-02-28T05:56:15;100088.53;;;-2.21;100.00
23899;BME280;20544;50.018;20.010;2023-02-28T05:59:31;100097.56;;;-2.09;100.00
23899;BME280;20544;50.018;20.010;2023-02-28T06:02:50;100091.93;;;-2.00;100.00
23899;BME280;20544;50.018;20.010;2023-02-28T06:06:07;100091.38;;;-1.87;100.00
23899;BME280;20544;50.018;20.010;2023-02-28T06:09:24;100092.78;;;-1.80;100.00
23899;BME280;20544;50.018;20.010;2023-02-28T06:12:41;100093.20;;;-1.70;100.00
23899;BME280;20544;50.018;20.010;2023-02-28T06:16:01;100102.47;;;-1.65;100.00
23899;BME280;20544;50.018;20.010;2023-02-28T06:19:20;100110.16;;;-1.61;100.00
23899;BME280;20544;50.018;20.010;2023-02-28T06:25:40;100112.88;;;-1.45;100.00
23899;BME280;20544;50.018;20.010;2023-02-28T06:29:02;100118.30;;;-1.50;100.00
23899;BME280;20544;50.018;20.010;2023-02-28T06:32:18;100121.69;;;-1.48;100.00
23899;BME280;20544;50.018;20.010;2023-02-28T06:35:42;100124.98;;;-1.44;100.00
23899;BME280;20544;50.018;20.010;2023-02-28T06:38:59;100122.23;;;-1.41;100.00
23899;BME280;20544;50.018;20.010;2023-02-28T06:42:18;100117.73;;;-1.76;100.00
23899;BME280;20544;50.018;20.010;2023-02-28T06:45:37;100123.00;;;-1.58;100.00
23899;BME280;20544;50.018;20.010;2023-02-28T06:48:58;100119.20;;;-1.51;100.00
23899;BME280;20544;50.018;20.010;2023-02-28T06:55:20;100129.95;;;-1.40;100.00
23899;BME280;20544;50.018;20.010;2023-02-28T06:58:39;100137.77;;;-1.40;100.00
23899;BME280;20544;50.018;20.010;2023-02-28T07:01:57;100135.24;;;-1.41;100.00
23899;BME280;20544;50.018;20.010;2023-02-28T07:05:15;100144.53;;;-1.36;100.00
23899;BME280;20544;50.018;20.010;2023-02-28T07:08:32;100143.13;;;-1.43;100.00
23899;BME280;20544;50.018;20.010;2023-02-28T07:11:51;100144.66;;;-1.39;100.00
23899;BME280;20544;50.018;20.010;2023-02-28T07:15:10;100155.23;;;-1.42;100.00
23899;BME280;20544;50.018;20.010;2023-02-28T07:18:27;100143.50;;;-1.51;100.00
23899;BME280;20544;50.018;20.010;2023-02-28T07:21:44;100154.53;;;-1.45;100.00
23899;BME280;20544;50.018;20.010;2023-02-28T07:25:02;100155.36;;;-1.45;100.00
23899;BME280;20544;50.018;20.010;2023-02-28T07:28:20;100159.66;;;-1.44;100.00
23899;BME280;20544;50.018;20.010;2023-02-28T07:31:36;100152.84;;;-1.47;100.00
23899;BME280;20544;50.018;20.010;2023-02-28T07:34:54;100156.48;;;-1.32;100.00
23899;BME280;20544;50.018;20.010;2023-02-28T07:41:14;100164.61;;;-0.84;100.00
23899;BME280;20544;50.018;20.010;2023-02-28T07:44:34;100157.36;;;-0.59;100.00
23899;BME280;20544;50.018;20.010;2023-02-28T07:47:51;100159.48;;;-0.50;100.00
23899;BME280;20544;50.018;20.010;2023-02-28T07:51:10;100158.13;;;-0.57;100.00
23899;BME280;20544;50.018;20.010;2023-02-28T07:57:30;100155.27;;;-0.70;100.00
23899;BME280;20544;50.018;20.010;2023-02-28T08:00:46;100161.48;;;-0.55;100.00
23899;BME280;20544;50.018;20.010;2023-02-28T08:04:02;100156.57;;;-0.44;100.00
23899;BME280;20544;50.018;20.010;2023-02-28T08:07:19;100159.35;;;-0.64;100.00
23899;BME280;20544;50.018;20.010;2023-02-28T08:10:36;100158.96;;;-0.74;100.00
23899;BME280;20544;50.018;20.010;2023-02-28T08:13:52;100160.44;;;-0.51;100.00
23899;BME280;20544;50.018;20.010;2023-02-28T08:17:09;100164.95;;;-0.37;100.00
23899;BME280;20544;50.018;20.010;2023-02-28T08:20:28;100161.39;;;-0.19;100.00
23899;BME280;20544;50.018;20.010;2023-02-28T08:23:45;100168.98;;;-0.31;100.00
23899;BME280;20544;50.018;20.010;2023-02-28T08:27:03;100164.14;;;-0.22;100.00
23899;BME280;20544;50.018;20.010;2023-02-28T08:30:20;100165.84;;;-0.21;100.00
23899;BME280;20544;50.018;20.010;2023-02-28T08:33:37;100164.71;;;0.01;100.00
23899;BME280;20544;50.018;20.010;2023-02-28T08:36:57;100167.77;;;0.09;100.00
23899;BME280;20544;50.018;20.010;2023-02-28T08:40:14;100162.77;;;0.38;100.00
23899;BME280;20544;50.018;20.010;2023-02-28T08:43:31;100167.33;;;0.51;100.00
23899;BME280;20544;50.018;20.010;2023-02-28T08:46:48;100169.76;;;0.86;100.00
23899;BME280;20544;50.018;20.010;2023-02-28T08:50:11;100162.99;;;1.13;100.00
23899;BME280;20544;50.018;20.010;2023-02-28T08:53:27;100171.89;;;1.25;100.00
23899;BME280;20544;50.018;20.010;2023-02-28T08:56:44;100169.96;;;1.74;100.00
23899;BME280;20544;50.018;20.010;2023-02-28T09:00:00;100174.00;;;1.94;100.00
23899;BME280;20544;50.018;20.010;2023-02-28T09:03:19;100177.46;;;2.09;100.00
23899;BME280;20544;50.018;20.010;2023-02-28T09:06:36;100174.85;;;2.23;100.00
23899;BME280;20544;50.018;20.010;2023-02-28T09:09:56;100184.09;;;2.43;100.00
23899;BME280;20544;50.018;20.010;2023-02-28T09:13:13;100177.82;;;2.46;100.00
23899;BME280;20544;50.018;20.010;2023-02-28T09:16:30;100174.83;;;2.38;100.00
23899;BME280;20544;50.018;20.010;2023-02-28T09:19:50;100168.44;;;2.56;100.00
23899;BME280;20544;50.018;20.010;2023-02-28T09:29:13;100180.77;;;2.69;100.00
23899;BME280;20544;50.018;20.010;2023-02-28T09:32:29;100172.80;;;2.70;100.00
23899;BME280;20544;50.018;20.010;2023-02-28T09:35:46;100174.20;;;2.76;100.00
23899;BME280;20544;50.018;20.010;2023-02-28T09:42:06;100171.10;;;2.42;100.00
23899;BME280;20544;50.018;20.010;2023-02-28T09:45:29;100178.47;;;2.50;100.00
23899;BME280;20544;50.018;20.010;2023-02-28T09:48:48;100171.05;;;2.71;100.00
23899;BME280;20544;50.018;20.010;2023-02-28T09:52:09;100180.20;;;2.78;100.00
23899;BME280;20544;50.018;20.010;2023-02-28T09:55:29;100181.79;;;2.81;100.00
23899;BME280;20544;50.018;20.010;2023-02-28T09:58:52;100182.83;;;2.78;100.00
23899;BME280;20544;50.018;20.010;2023-02-28T10:02:21;100193.18;;;2.94;100.00
23899;BME280;20544;50.018;20.010;2023-02-28T10:05:53;100175.61;;;2.82;100.00
23899;BME280;20544;50.018;20.010;2023-02-28T10:09:15;100191.49;;;2.93;100.00
23899;BME280;20544;50.018;20.010;2023-02-28T10:12:36;100186.14;;;2.95;100.00
23899;BME280;20544;50.018;20.010;2023-02-28T10:15:57;100179.32;;;2.92;100.00
23899;BME280;20544;50.018;20.010;2023-02-28T10:19:19;100171.73;;;3.15;100.00
23899;BME280;20544;50.018;20.010;2023-02-28T10:22:50;100173.80;;;3.37;100.00
23899;BME280;20544;50.018;20.010;2023-02-28T10:26:12;100174.03;;;3.47;100.00
23899;BME280;20544;50.018;20.010;2023-02-28T10:29:32;100162.20;;;3.54;100.00
23899;BME280;20544;50.018;20.010;2023-02-28T10:32:52;100172.13;;;3.49;100.00
23899;BME280;20544;50.018;20.010;2023-02-28T10:36:12;100162.60;;;3.48;100.00
23899;BME280;20544;50.018;20.010;2023-02-28T10:39:45;100154.09;;;3.57;100.00
23899;BME280;20544;50.018;20.010;2023-02-28T10:43:11;100170.07;;;3.67;100.00
23899;BME280;20544;50.018;20.010;2023-02-28T10:46:34;100153.91;;;3.73;100.00
23899;BME280;20544;50.018;20.010;2023-02-28T10:49:51;100157.89;;;3.66;100.00
23899;BME280;20544;50.018;20.010;2023-02-28T10:56:24;100150.97;;;3.91;100.00
23899;BME280;20544;50.018;20.010;2023-02-28T10:59:42;100146.56;;;4.04;100.00
23899;BME280;20544;50.018;20.010;2023-02-28T11:02:58;100137.28;;;4.24;100.00
23899;BME280;20544;50.018;20.010;2023-02-28T11:06:20;100136.97;;;4.29;100.00
23899;BME280;20544;50.018;20.010;2023-02-28T11:09:40;100134.03;;;4.20;100.00
23899;BME280;20544;50.018;20.010;2023-02-28T11:12:59;100121.33;;;4.14;100.00
23899;BME280;20544;50.018;20.010;2023-02-28T11:16:17;100118.41;;;3.67;100.00
23899;BME280;20544;50.018;20.010;2023-02-28T11:19:38;100121.21;;;4.16;100.00
23899;BME280;20544;50.018;20.010;2023-02-28T11:22:55;100117.02;;;4.26;100.00
23899;BME280;20544;50.018;20.010;2023-02-28T11:26:13;100112.76;;;3.86;100.00
23899;BME280;20544;50.018;20.010;2023-02-28T11:29:32;100102.27;;;4.36;100.00
23899;BME280;20544;50.018;20.010;2023-02-28T11:32:51;100104.58;;;4.41;100.00
23899;BME280;20544;50.018;20.010;2023-02-28T11:36:16;100098.39;;;4.29;100.00
23899;BME280;20544;50.018;20.010;2023-02-28T11:39:36;100093.10;;;3.92;100.00
23899;BME280;20544;50.018;20.010;2023-02-28T11:42:57;100100.80;;;3.56;100.00
23899;BME280;20544;50.018;20.010;2023-02-28T11:46:27;100088.59;;;3.81;100.00
23899;BME280;20544;50.018;20.010;2023-02-28T11:49:49;100088.88;;;4.02;100.00
23899;BME280;20544;50.018;20.010;2023-02-28T11:53:14;100085.22;;;3.92;100.00
23899;BME280;20544;50.018;20.010;2023-02-28T11:56:38;100083.02;;;3.86;100.00
23899;BME280;20544;50.018;20.010;2023-02-28T12:00:02;100083.77;;;3.88;100.00
23899;BME280;20544;50.018;20.010;2023-02-28T12:03:34;100090.28;;;3.69;100.00
23899;BME280;20544;50.018;20.010;2023-02-28T12:07:02;100083.89;;;3.61;100.00
23899;BME280;20544;50.018;20.010;2023-02-28T12:10:25;100076.34;;;3.69;100.00
23899;BME280;20544;50.018;20.010;2023-02-28T12:13:48;100063.33;;;3.42;100.00
23899;BME280;20544;50.018;20.010;2023-02-28T12:17:15;100065.11;;;3.54;100.00
23899;BME280;20544;50.018;20.010;2023-02-28T12:20:40;100078.95;;;3.56;100.00
23899;BME280;20544;50.018;20.010;2023-02-28T12:24:21;100073.38;;;3.35;100.00
23899;BME280;20544;50.018;20.010;2023-02-28T12:27:47;100075.47;;;3.43;100.00
23899;BME280;20544;50.018;20.010;2023-02-28T12:31:08;100071.39;;;3.38;100.00
23899;BME280;20544;50.018;20.010;2023-02-28T12:34:28;100074.72;;;3.28;100.00
23899;BME280;20544;50.018;20.010;2023-02-28T12:37:51;100076.41;;;3.16;100.00
23899;BME280;20544;50.018;20.010;2023-02-28T12:41:13;100082.29;;;3.19;100.00
23899;BME280;20544;50.018;20.010;2023-02-28T12:44:34;100082.46;;;3.03;100.00
23899;BME280;20544;50.018;20.010;2023-02-28T12:47:57;100075.34;;;3.05;100.00
23899;BME280;20544;50.018;20.010;2023-02-28T12:51:19;100073.02;;;3.01;100.00
23899;BME280;20544;50.018;20.010;2023-02-28T12:58:01;100079.90;;;2.89;100.00
23899;BME280;20544;50.018;20.010;2023-02-28T13:01:38;100063.98;;;2.92;100.00
23899;BME280;20544;50.018;20.010;2023-02-28T13:12:24;100070.32;;;2.75;100.00
23899;BME280;20544;50.018;20.010;2023-02-28T13:15:58;100064.66;;;2.68;100.00
23899;BME280;20544;50.018;20.010;2023-02-28T13:19:20;100061.53;;;2.76;100.00
23899;BME280;20544;50.018;20.010;2023-02-28T13:22:43;100050.11;;;2.77;100.00
23899;BME280;20544;50.018;20.010;2023-02-28T13:26:06;100053.88;;;2.73;100.00
23899;BME280;20544;50.018;20.010;2023-02-28T13:29:30;100044.34;;;2.72;100.00
23899;BME280;20544;50.018;20.010;2023-02-28T13:32:47;100038.98;;;2.73;100.00
23899;BME280;20544;50.018;20.010;2023-02-28T13:36:24;100045.27;;;2.71;100.00
23899;BME280;20544;50.018;20.010;2023-02-28T13:43:05;100033.50;;;2.64;100.00
23899;BME280;20544;50.018;20.010;2023-02-28T13:47:15;100045.56;;;2.66;100.00
23899;BME280;20544;50.018;20.010;2023-02-28T13:50:28;100033.80;;;2.59;100.00
23899;BME280;20544;50.018;20.010;2023-02-28T13:57:22;100027.09;;;2.55;100.00
23899;BME280;20544;50.018;20.010;2023-02-28T14:00:59;100021.31;;;2.50;100.00
23899;BME280;20544;50.018;20.010;2023-02-28T14:08:26;100016.82;;;2.52;100.00
23899;BME280;20544;50.018;20.010;2023-02-28T14:11:45;100010.83;;;2.50;100.00
23899;BME280;20544;50.018;20.010;2023-02-28T14:15:03;100004.20;;;2.44;100.00
23899;BME280;20544;50.018;20.010;2023-02-28T14:18:34;99998.96;;;2.44;100.00
23899;BME280;20544;50.018;20.010;2023-02-28T14:22:03;99998.23;;;2.42;100.00
23899;BME280;20544;50.018;20.010;2023-02-28T14:25:29;100004.20;;;2.44;100.00
23899;BME280;20544;50.018;20.010;2023-02-28T14:28:59;99995.80;;;2.39;100.00
23899;BME280;20544;50.018;20.010;2023-02-28T14:32:32;99999.92;;;2.43;100.00
23899;BME280;20544;50.018;20.010;2023-02-28T14:36:06;100000.86;;;2.42;100.00
23899;BME280;20544;50.018;20.010;2023-02-28T14:39:31;99998.88;;;2.46;100.00
23899;BME280;20544;50.018;20.010;2023-02-28T14:42:56;100007.57;;;2.46;100.00
23899;BME280;20544;50.018;20.010;2023-02-28T14:46:19;100007.57;;;2.46;100.00
23899;BME280;20544;50.018;20.010;2023-02-28T14:49:42;100009.65;;;2.41;100.00
23899;BME280;20544;50.018;20.010;2023-02-28T14:52:57;99999.47;;;2.36;100.00
23899;BME280;20544;50.018;20.010;2023-02-28T14:56:23;100006.03;;;2.29;100.00
23899;BME280;20544;50.018;20.010;2023-02-28T14:59:40;100003.63;;;2.26;100.00
23899;BME280;20544;50.018;20.010;2023-02-28T15:02:59;100004.45;;;2.26;100.00
23899;BME280;20544;50.018;20.010;2023-02-28T15:06:28;100011.77;;;2.21;100.00
23899;BME280;20544;50.018;20.010;2023-02-28T15:09:47;100004.02;;;2.20;100.00
23899;BME280;20544;50.018;20.010;2023-02-28T15:13:07;100006.73;;;2.18;100.00
23899;BME280;20544;50.018;20.010;2023-02-28T15:16:28;100003.91;;;2.21;100.00
23899;BME280;20544;50.018;20.010;2023-02-28T15:19:50;100000.36;;;2.22;100.00
23899;BME280;20544;50.018;20.010;2023-02-28T15:23:10;99997.30;;;2.16;100.00
23899;BME280;20544;50.018;20.010;2023-02-28T15:26:31;99997.30;;;2.16;100.00
23899;BME280;20544;50.018;20.010;2023-02-28T15:29:54;99998.23;;;2.15;100.00
23899;BME280;20544;50.018;20.010;2023-02-28T15:33:23;100009.92;;;2.09;100.00
23899;BME280;20544;50.018;20.010;2023-02-28T15:36:40;99997.22;;;2.03;100.00
23899;BME280;20544;50.018;20.010;2023-02-28T15:39:58;100008.84;;;1.99;100.00
23899;BME280;20544;50.018;20.010;2023-02-28T15:43:26;99998.47;;;1.97;100.00
23899;BME280;20544;50.018;20.010;2023-02-28T15:46:54;99997.72;;;1.95;100.00
23899;BME280;20544;50.018;20.010;2023-02-28T15:50:18;99999.58;;;1.93;100.00
23899;BME280;20544;50.018;20.010;2023-02-28T15:53:39;100000.55;;;1.92;100.00
23899;BME280;20544;50.018;20.010;2023-02-28T15:57:06;99998.86;;;1.91;100.00
23899;BME280;20544;50.018;20.010;2023-02-28T16:00:30;99997.34;;;1.87;100.00
23899;BME280;20544;50.018;20.010;2023-02-28T16:03:51;100005.13;;;1.88;100.00
23899;BME280;20544;50.018;20.010;2023-02-28T16:07:15;99999.14;;;1.86;100.00
23899;BME280;20544;50.018;20.010;2023-02-28T16:10:35;100008.78;;;1.86;100.00
23899;BME280;20544;50.018;20.010;2023-02-28T16:13:52;100008.20;;;1.81;100.00
23899;BME280;20544;50.018;20.010;2023-02-28T16:17:13;100005.51;;;1.82;100.00
23899;BME280;20544;50.018;20.010;2023-02-28T16:20:34;99999.73;;;1.77;100.00
23899;BME280;20544;50.018;20.010;2023-02-28T16:23:52;100012.88;;;1.75;100.00
23899;BME280;20544;50.018;20.010;2023-02-28T16:27:14;100009.71;;;1.70;100.00
23899;BME280;20544;50.018;20.010;2023-02-28T16:30:31;100004.86;;;1.64;100.00
23899;BME280;20544;50.018;20.010;2023-02-28T16:33:48;100001.52;;;1.62;100.00
23899;BME280;20544;50.018;20.010;2023-02-28T16:37:13;100011.22;;;1.60;100.00
23899;BME280;20544;50.018;20.010;2023-02-28T16:43:48;100015.90;;;1.55;100.00
23899;BME280;20544;50.018;20.010;2023-02-28T16:47:10;100012.73;;;1.50;100.00
23899;BME280;20544;50.018;20.010;2023-02-28T16:50:29;100021.60;;;1.47;100.00
23899;BME280;20544;50.018;20.010;2023-02-28T16:53:47;100020.84;;;1.45;100.00
23899;BME280;20544;50.018;20.010;2023-02-28T17:00:20;100021.11;;;1.40;100.00
23899;BME280;20544;50.018;20.010;2023-02-28T17:03:40;100028.96;;;1.40;100.00
23899;BME280;20544;50.018;20.010;2023-02-28T17:06:59;100032.33;;;1.42;100.00
23899;BME280;20544;50.018;20.010;2023-02-28T17:10:19;100015.78;;;1.42;100.00
23899;BME280;20544;50.018;20.010;2023-02-28T17:13:37;100027.93;;;1.43;100.00
23899;BME280;20544;50.018;20.010;2023-02-28T17:16:54;100027.93;;;1.43;100.00
23899;BME280;20544;50.018;20.010;2023-02-28T17:20:14;100026.34;;;1.40;100.00
23899;BME280;20544;50.018;20.010;2023-02-28T17:23:32;100032.33;;;1.42;100.00
23899;BME280;20544;50.018;20.010;2023-02-28T17:26:50;100023.91;;;1.23;100.00
23899;BME280;20544;50.018;20.010;2023-02-28T17:30:12;100031.59;;;0.95;100.00
23899;BME280;20544;50.018;20.010;2023-02-28T17:33:38;100023.23;;;0.74;100.00
23899;BME280;20544;50.018;20.010;2023-02-28T17:36:55;100032.21;;;0.54;100.00
23899;BME280;20544;50.018;20.010;2023-02-28T17:40:18;100029.72;;;0.37;100.00
23899;BME280;20544;50.018;20.010;2023-02-28T17:43:36;100021.30;;;0.31;100.00
23899;BME280;20544;50.018;20.010;2023-02-28T17:46:55;100020.20;;;0.20;100.00
23899;BME280;20544;50.018;20.010;2023-02-28T17:50:18;100019.28;;;0.05;100.00
23899;BME280;20544;50.018;20.010;2023-02-28T17:53:36;100010.04;;;-0.01;100.00
23899;BME280;20544;50.018;20.010;2023-02-28T17:56:56;100010.09;;;-0.03;100.00
23899;BME280;20544;50.018;20.010;2023-02-28T18:00:19;100012.06;;;-0.06;100.00
23899;BME280;20544;50.018;20.010;2023-02-28T18:03:37;100011.03;;;-0.20;100.00
23899;BME280;20544;50.018;20.010;2023-02-28T18:06:56;100012.28;;;-0.27;100.00
23899;BME280;20544;50.018;20.010;2023-02-28T18:13:34;100011.69;;;-0.32;100.00
23899;BME280;20544;50.018;20.010;2023-02-28T18:16:51;100004.20;;;-0.38;100.00
23899;BME280;20544;50.018;20.010;2023-02-28T18:20:12;100005.80;;;-0.36;100.00
23899;BME280;20544;50.018;20.010;2023-02-28T18:23:28;100001.83;;;-0.43;100.00
23899;BME280;20544;50.018;20.010;2023-02-28T18:26:44;100016.05;;;-0.48;100.00
23899;BME280;20544;50.018;20.010;2023-02-28T18:30:05;100007.59;;;-0.54;100.00
23899;BME280;20544;50.018;20.010;2023-02-28T18:33:26;100011.30;;;-0.58;100.00
23899;BME280;20544;50.018;20.010;2023-02-28T18:36:43;100016.74;;;-0.62;100.00